Granite Canon, Wyoming
Current Conditions -  °F | °C
As of 3:56 AM on Tuesday 21 Oct 2014 (Local Time) from KFEW Reporting Station
Clear Clear  
Wind Chill: 37°   Ceiling: Unl
Heat Index: 42°   Visibility: 10mi
Dew Point: 34°   Wind: 7mph
Humidity: 74%   Direction: 310°NW
Pressure: 30.02"   Gusts: NA
Location:  41.1°N, 105.14°W
Report Text: KFEW 210956Z AUTO 31006KT 10SM CLR 05/01 A3002 RMK AO2 SLP113 T00540011 $
Loading
Personal Weather Stations






























Interactive Weather Map
Tropical Storm Tracking
New forecast layout! Learn more

10-Day Weather Forecast

Advertisements
Track Severe Weather on mobile